createdAt,value
2022-09-06T00:00:35.597Z,19.63
2022-09-06T00:03:02.229Z,19.66
2022-09-06T00:05:28.669Z,19.67
2022-09-06T00:07:55.453Z,19.64
2022-09-06T00:10:21.840Z,19.58
2022-09-06T00:12:48.363Z,19.53
2022-09-06T00:15:14.735Z,19.51
2022-09-06T00:17:41.284Z,19.46
2022-09-06T00:20:10.703Z,19.37
2022-09-06T00:22:37.336Z,19.36
2022-09-06T00:25:05.750Z,19.41
2022-09-06T00:27:32.169Z,19.31
2022-09-06T00:29:58.580Z,19.21
2022-09-06T00:32:24.972Z,19.14
2022-09-06T00:34:51.579Z,19.16
2022-09-06T00:37:17.978Z,19.07
2022-09-06T00:39:44.629Z,19.03
2022-09-06T00:42:11.525Z,18.99
2022-09-06T00:44:38.103Z,18.95
2022-09-06T00:47:05.449Z,18.92
2022-09-06T00:49:32.676Z,18.86
2022-09-06T00:52:01.640Z,18.82
2022-09-06T00:54:27.994Z,18.82
2022-09-06T00:56:54.365Z,18.74
2022-09-06T00:59:20.736Z,18.76
2022-09-06T01:01:47.185Z,18.70
2022-09-06T01:04:13.771Z,18.67
2022-09-06T01:06:52.424Z,18.59
2022-09-06T01:09:24.901Z,18.57
2022-09-06T01:11:51.254Z,18.55
2022-09-06T01:14:26.704Z,18.50
2022-09-06T01:17:02.257Z,18.41
2022-09-06T01:19:33.180Z,18.40
2022-09-06T01:21:59.505Z,18.46
2022-09-06T01:24:38.111Z,18.40
2022-09-06T01:27:23.164Z,18.33
2022-09-06T01:30:09.330Z,18.30
2022-09-06T01:32:35.641Z,18.31
2022-09-06T01:35:12.529Z,18.32
2022-09-06T01:37:38.914Z,18.40
2022-09-06T01:40:05.579Z,18.45
2022-09-06T01:42:31.975Z,18.38
2022-09-06T01:45:00.114Z,18.26
2022-09-06T01:47:35.496Z,18.16
2022-09-06T01:50:20.598Z,18.26
2022-09-06T01:53:05.941Z,18.26
2022-09-06T01:55:33.800Z,18.11
2022-09-06T01:58:09.501Z,18.06
2022-09-06T02:00:38.509Z,17.87
2022-09-06T02:03:09.271Z,17.77
2022-09-06T02:05:45.985Z,17.81
2022-09-06T02:08:16.908Z,17.78
2022-09-06T02:10:48.200Z,17.78
2022-09-06T02:13:14.781Z,17.85
2022-09-06T02:15:49.337Z,17.83
2022-09-06T02:18:16.965Z,17.81
2022-09-06T02:20:45.725Z,17.76
2022-09-06T02:23:12.121Z,17.74
2022-09-06T02:25:39.585Z,17.73
2022-09-06T02:28:06.580Z,17.71
2022-09-06T02:30:33.720Z,17.71
2022-09-06T02:33:01.684Z,17.68
2022-09-06T02:35:28.040Z,17.67
2022-09-06T02:37:54.753Z,17.63
2022-09-06T02:40:21.143Z,17.65
2022-09-06T02:42:47.552Z,17.77
2022-09-06T02:45:13.973Z,17.85
2022-09-06T02:47:40.372Z,17.94
2022-09-06T02:50:08.215Z,17.88
2022-09-06T02:52:34.755Z,17.84
2022-09-06T02:55:01.131Z,17.85
2022-09-06T02:57:27.544Z,17.88
2022-09-06T02:59:54.095Z,17.83
2022-09-06T03:02:20.585Z,17.83
2022-09-06T03:04:47.000Z,17.73
2022-09-06T03:07:13.473Z,17.77
2022-09-06T03:09:41.274Z,17.78
2022-09-06T03:12:07.831Z,17.82
2022-09-06T03:14:36.007Z,17.92
2022-09-06T03:17:03.070Z,17.94
2022-09-06T03:19:29.503Z,17.90
2022-09-06T03:21:55.897Z,17.85
2022-09-06T03:24:22.247Z,17.94
2022-09-06T03:26:48.663Z,17.82
2022-09-06T03:29:15.041Z,17.86
2022-09-06T03:31:41.435Z,17.91
2022-09-06T03:34:10.977Z,17.87
2022-09-06T03:36:37.656Z,17.75
2022-09-06T03:39:04.015Z,17.69
2022-09-06T03:41:30.413Z,17.67
2022-09-06T03:43:56.824Z,17.67
2022-09-06T03:46:23.277Z,17.63
2022-09-06T03:48:49.986Z,17.62
2022-09-06T03:51:16.350Z,17.57
2022-09-06T03:53:42.762Z,17.54
2022-09-06T03:56:09.131Z,17.55
2022-09-06T03:58:35.499Z,17.58
2022-09-06T04:01:04.403Z,17.54
2022-09-06T04:03:30.948Z,17.50
2022-09-06T04:05:57.316Z,17.47
2022-09-06T04:08:23.776Z,17.49
2022-09-06T04:10:51.308Z,17.47
2022-09-06T04:13:17.776Z,17.46
2022-09-06T04:15:50.297Z,17.47
2022-09-06T04:18:16.681Z,17.48
2022-09-06T04:20:43.051Z,17.50
2022-09-06T04:23:09.455Z,17.53
2022-09-06T04:25:35.831Z,17.54
2022-09-06T04:28:02.314Z,17.56
2022-09-06T04:30:28.706Z,17.67
2022-09-06T04:32:55.084Z,17.72
2022-09-06T04:35:21.453Z,17.93
2022-09-06T04:37:47.845Z,17.88
2022-09-06T04:40:14.230Z,18.12
2022-09-06T04:42:40.656Z,18.05
2022-09-06T04:45:07.247Z,18.14
2022-09-06T04:47:33.627Z,18.09
2022-09-06T04:49:59.979Z,18.16
2022-09-06T04:52:30.120Z,18.14
2022-09-06T04:54:56.759Z,18.07
2022-09-06T04:57:23.158Z,18.05
2022-09-06T04:59:49.536Z,18.07
2022-09-06T05:02:15.999Z,17.95
2022-09-06T05:04:42.395Z,17.91
2022-09-06T05:07:08.903Z,17.82
2022-09-06T05:09:35.312Z,17.84
2022-09-06T05:12:01.858Z,17.84
2022-09-06T05:14:28.452Z,17.80
2022-09-06T05:16:54.899Z,17.77
2022-09-06T05:19:21.470Z,17.77
2022-09-06T05:21:47.831Z,17.77
2022-09-06T05:24:14.252Z,17.81
2022-09-06T05:26:40.632Z,17.84
2022-09-06T05:29:07.014Z,17.94
2022-09-06T05:31:33.820Z,17.93
2022-09-06T05:34:00.450Z,18.02
2022-09-06T05:36:27.117Z,17.96
2022-09-06T05:38:54.072Z,17.98
2022-09-06T05:41:20.502Z,17.98
2022-09-06T05:43:46.983Z,18.10
2022-09-06T05:46:13.455Z,18.06
2022-09-06T05:48:39.928Z,18.04
2022-09-06T05:51:10.024Z,18.06
2022-09-06T05:53:36.635Z,18.11
2022-09-06T05:56:03.346Z,18.15
2022-09-06T05:58:29.803Z,18.19
2022-09-06T06:01:14.275Z,18.18
2022-09-06T06:03:40.736Z,18.21
2022-09-06T06:06:07.143Z,18.21
2022-09-06T06:08:34.429Z,18.24
2022-09-06T06:11:00.826Z,18.21
2022-09-06T06:13:27.481Z,18.21
2022-09-06T06:15:53.896Z,18.17
2022-09-06T06:18:20.386Z,18.19
2022-09-06T06:20:46.863Z,18.22
2022-09-06T06:23:14.639Z,18.14
2022-09-06T06:25:41.027Z,18.10
2022-09-06T06:28:07.431Z,18.09
2022-09-06T06:30:33.800Z,18.12
2022-09-06T06:33:02.159Z,18.14
2022-09-06T06:35:28.581Z,18.15
2022-09-06T06:37:56.336Z,18.26
2022-09-06T06:40:22.754Z,18.37
2022-09-06T06:42:49.190Z,18.45
2022-09-06T06:45:15.665Z,18.52
2022-09-06T06:47:42.109Z,18.59
2022-09-06T06:50:08.584Z,18.59
2022-09-06T06:52:34.982Z,18.67
2022-09-06T06:55:01.356Z,18.70
2022-09-06T06:57:27.723Z,18.69
2022-09-06T06:59:54.099Z,18.74
2022-09-06T07:02:20.562Z,18.78
2022-09-06T07:04:46.986Z,18.79
2022-09-06T07:12:46.305Z,19.33
2022-09-06T07:15:12.676Z,19.69
2022-09-06T07:17:39.728Z,19.89
2022-09-06T07:20:14.281Z,19.97
2022-09-06T07:22:41.429Z,20.04
2022-09-06T07:25:08.341Z,20.13
2022-09-06T07:27:50.428Z,20.13
2022-09-06T07:30:17.408Z,20.50
2022-09-06T07:32:43.797Z,20.61
2022-09-06T07:35:10.170Z,20.95
2022-09-06T07:37:36.670Z,20.80
2022-09-06T07:40:03.469Z,20.73
2022-09-06T07:42:36.150Z,20.71
2022-09-06T07:45:03.335Z,20.79
2022-09-06T07:55:32.349Z,21.44
2022-09-06T07:57:58.782Z,21.65
2022-09-06T08:00:25.577Z,22.06
2022-09-06T08:02:51.961Z,22.00
2022-09-06T08:10:51.315Z,22.05
2022-09-06T08:13:17.696Z,21.87
2022-09-06T08:15:44.080Z,21.73
2022-09-06T08:18:10.497Z,21.81
2022-09-06T08:20:36.900Z,21.92
2022-09-06T08:23:05.740Z,22.14
2022-09-06T08:25:32.119Z,22.03
2022-09-06T08:27:58.506Z,22.31
2022-09-06T08:30:24.922Z,22.30
2022-09-06T08:32:52.055Z,22.67
2022-09-06T08:35:18.441Z,23.01
2022-09-06T08:37:44.838Z,23.16
2022-09-06T08:40:11.361Z,23.27
2022-09-06T08:42:39.615Z,23.38
2022-09-06T08:45:09.435Z,23.45
2022-09-06T08:47:35.869Z,23.25
2022-09-06T08:50:05.584Z,23.75
2022-09-06T08:52:54.476Z,23.84
2022-09-06T08:55:37.818Z,23.42
2022-09-06T08:58:04.812Z,23.78
2022-09-06T09:00:31.414Z,24.06
2022-09-06T09:03:08.186Z,23.96
2022-09-06T09:05:35.085Z,24.11
2022-09-06T09:08:12.399Z,24.04
2022-09-06T09:10:40.738Z,24.11
2022-09-06T09:13:07.848Z,24.55
2022-09-06T09:15:37.135Z,24.57
2022-09-06T09:18:06.578Z,24.78
2022-09-06T09:20:32.952Z,24.88
2022-09-06T09:22:59.347Z,24.75
2022-09-06T09:25:31.901Z,24.96
2022-09-06T09:27:58.348Z,24.96
2022-09-06T09:33:41.325Z,24.92
2022-09-06T09:36:08.383Z,25.39
2022-09-06T09:38:44.407Z,25.62
2022-09-06T09:41:10.911Z,25.23
2022-09-06T09:43:37.333Z,25.44
2022-09-06T09:46:13.330Z,26.06
2022-09-06T09:48:40.121Z,26.14
2022-09-06T09:51:26.313Z,25.97
2022-09-06T09:53:53.600Z,26.46
2022-09-06T09:56:27.569Z,26.88
2022-09-06T09:58:54.765Z,26.63
2022-09-06T10:01:30.870Z,26.19
2022-09-06T10:09:34.976Z,25.82
2022-09-06T10:12:01.665Z,26.22
2022-09-06T10:14:31.780Z,26.29
2022-09-06T10:16:58.447Z,26.11
2022-09-06T10:19:33.717Z,26.55
2022-09-06T10:22:01.817Z,26.58
2022-09-06T10:24:36.424Z,26.53
2022-09-06T10:27:02.827Z,26.68
2022-09-06T10:29:37.465Z,26.71
2022-09-06T10:32:06.645Z,26.89
2022-09-06T10:34:42.882Z,26.56
2022-09-06T10:37:21.600Z,26.50
2022-09-06T10:40:08.476Z,26.65
2022-09-06T10:42:34.906Z,26.84
2022-09-06T10:45:20.217Z,26.54
2022-09-06T10:47:52.859Z,27.17
2022-09-06T10:50:19.413Z,26.99
2022-09-06T10:52:45.823Z,27.19
2022-09-06T10:55:17.685Z,27.47
2022-09-06T11:00:36.082Z,27.14
2022-09-06T11:06:08.652Z,27.82
2022-09-06T11:08:58.513Z,27.76
2022-09-06T11:11:38.836Z,27.27
2022-09-06T11:14:06.332Z,27.69
2022-09-06T11:16:33.866Z,27.38
2022-09-06T11:19:05.479Z,27.60
2022-09-06T11:21:50.829Z,27.40
2022-09-06T11:24:22.699Z,28.14
2022-09-06T11:27:05.004Z,28.33
2022-09-06T11:29:31.672Z,29.00
2022-09-06T11:32:18.157Z,29.04
2022-09-06T11:34:52.243Z,28.82
2022-09-06T11:37:32.720Z,29.03
2022-09-06T11:42:51.029Z,28.38
2022-09-06T11:45:21.474Z,28.41
2022-09-06T11:47:48.722Z,29.01
2022-09-06T11:50:21.180Z,29.35
2022-09-06T11:53:06.193Z,29.63
2022-09-06T11:55:39.630Z,28.60
2022-09-06T11:58:09.319Z,28.64
2022-09-06T12:00:35.867Z,28.16
2022-09-06T12:06:07.572Z,29.30
2022-09-06T12:08:34.250Z,29.62
2022-09-06T12:11:01.685Z,29.08
2022-09-06T12:13:35.279Z,29.31
2022-09-06T12:16:01.719Z,29.04
2022-09-06T12:18:43.565Z,28.59
2022-09-06T12:21:10.389Z,28.96
2022-09-06T12:23:36.783Z,29.00
2022-09-06T12:26:03.752Z,28.73
2022-09-06T12:28:34.837Z,29.00
2022-09-06T12:31:01.483Z,29.09
2022-09-06T12:33:36.263Z,29.37
2022-09-06T12:36:12.290Z,29.45
2022-09-06T12:38:38.694Z,29.71
2022-09-06T12:41:05.770Z,30.17
2022-09-06T12:43:36.140Z,29.89
2022-09-06T12:46:02.587Z,30.45
2022-09-06T12:48:29.909Z,29.86
2022-09-06T12:51:03.136Z,29.14
2022-09-06T12:53:31.505Z,29.35
2022-09-06T12:56:07.910Z,29.17
2022-09-06T12:58:34.604Z,29.03
2022-09-06T13:01:08.644Z,29.21
2022-09-06T13:03:45.715Z,29.56
2022-09-06T13:06:16.359Z,29.90
2022-09-06T13:08:45.551Z,30.30
2022-09-06T13:11:13.416Z,30.96
2022-09-06T13:13:49.671Z,30.47
2022-09-06T13:16:22.830Z,30.48
2022-09-06T13:18:49.297Z,30.98
2022-09-06T13:21:24.235Z,30.14
2022-09-06T13:23:51.043Z,30.87
2022-09-06T13:26:36.549Z,31.07
2022-09-06T13:29:10.569Z,30.59
2022-09-06T13:31:37.517Z,29.78
2022-09-06T13:34:03.955Z,29.42
2022-09-06T13:36:33.827Z,30.17
2022-09-06T13:39:03.312Z,30.41
2022-09-06T13:41:40.687Z,30.04
2022-09-06T13:44:16.187Z,29.23
2022-09-06T13:46:42.633Z,29.39
2022-09-06T13:49:09.134Z,29.26
2022-09-06T13:51:35.550Z,28.66
2022-09-06T13:54:12.036Z,28.19
2022-09-06T13:56:39.295Z,28.82
2022-09-06T13:59:05.770Z,28.64
2022-09-06T14:01:32.667Z,28.73
2022-09-06T14:03:59.408Z,28.80
2022-09-06T14:06:25.811Z,28.89
2022-09-06T14:09:08.531Z,27.85
2022-09-06T14:11:35.550Z,27.34
2022-09-06T14:14:01.965Z,27.24
2022-09-06T14:16:28.337Z,27.32
2022-09-06T14:18:54.809Z,27.65
2022-09-06T14:21:21.241Z,27.96
2022-09-06T14:23:51.100Z,28.24
2022-09-06T14:26:18.769Z,28.69
2022-09-06T14:28:45.371Z,28.87
2022-09-06T14:31:15.717Z,29.27
2022-09-06T14:33:42.204Z,29.26
2022-09-06T14:36:09.214Z,28.64
2022-09-06T14:38:36.802Z,28.40
2022-09-06T14:41:04.029Z,28.32
2022-09-06T14:43:30.468Z,28.03
2022-09-06T14:46:02.377Z,27.82
2022-09-06T14:48:30.969Z,27.68
2022-09-06T14:50:57.648Z,27.65
2022-09-06T14:53:39.399Z,27.44
2022-09-06T14:56:06.922Z,27.35
2022-09-06T14:58:33.800Z,27.02
2022-09-06T15:01:13.801Z,27.16
2022-09-06T15:03:46.228Z,27.19
2022-09-06T15:06:12.587Z,27.27
2022-09-06T15:08:39.027Z,27.24
2022-09-06T15:11:08.059Z,27.36
2022-09-06T15:13:36.256Z,27.31
2022-09-06T15:16:02.856Z,27.22
2022-09-06T15:18:29.580Z,27.10
2022-09-06T15:20:55.960Z,27.13
2022-09-06T15:23:25.200Z,27.13
2022-09-06T15:25:52.185Z,27.04
2022-09-06T15:28:19.360Z,27.01
2022-09-06T15:30:46.129Z,26.87
2022-09-06T15:33:14.916Z,26.74
2022-09-06T15:35:42.495Z,26.70
2022-09-06T15:38:09.209Z,26.70
2022-09-06T15:40:35.586Z,26.47
2022-09-06T15:43:03.139Z,26.43
2022-09-06T15:45:29.783Z,26.38
2022-09-06T15:47:56.635Z,26.37
2022-09-06T15:50:47.476Z,26.31
2022-09-06T15:53:10.033Z,26.18
2022-09-06T15:55:55.062Z,26.11
2022-09-06T15:58:22.396Z,26.10
2022-09-06T16:01:01.849Z,26.14
2022-09-06T16:03:28.479Z,26.16
2022-09-06T16:08:41.764Z,25.98
2022-09-06T16:11:08.956Z,25.94
2022-09-06T16:13:35.486Z,25.93
2022-09-06T16:16:02.480Z,25.86
2022-09-06T16:18:28.945Z,25.76
2022-09-06T16:20:55.387Z,25.72
2022-09-06T16:23:21.795Z,25.78
2022-09-06T16:25:54.207Z,25.77
2022-09-06T16:28:20.621Z,25.80
2022-09-06T16:30:47.027Z,25.65
2022-09-06T16:33:13.478Z,25.62
2022-09-06T16:35:40.536Z,25.53
2022-09-06T16:38:09.083Z,25.63
2022-09-06T16:40:35.833Z,25.54
2022-09-06T16:43:03.264Z,25.63
2022-09-06T16:45:30.275Z,25.55
2022-09-06T16:47:56.666Z,25.40
2022-09-06T16:50:23.068Z,25.36
2022-09-06T16:52:50.246Z,25.28
2022-09-06T16:55:17.131Z,25.22
2022-09-06T16:57:43.522Z,25.24
2022-09-06T17:00:11.265Z,25.11
2022-09-06T17:02:37.718Z,25.03
2022-09-06T17:05:04.372Z,25.03
2022-09-06T17:07:31.152Z,24.93
2022-09-06T17:09:57.523Z,24.97
2022-09-06T17:12:24.090Z,24.76
2022-09-06T17:14:50.453Z,24.74
2022-09-06T17:17:17.825Z,24.74
2022-09-06T17:19:44.393Z,24.66
2022-09-06T17:22:11.151Z,24.62
2022-09-06T17:24:37.593Z,24.51
2022-09-06T17:27:04.438Z,24.34
2022-09-06T17:29:31.213Z,24.25
2022-09-06T17:31:57.576Z,24.19
2022-09-06T17:34:23.951Z,24.15
2022-09-06T17:36:50.377Z,24.06
2022-09-06T17:39:20.965Z,24.03
2022-09-06T17:41:49.798Z,23.86
2022-09-06T17:44:17.092Z,23.80
2022-09-06T17:46:57.109Z,23.81
2022-09-06T17:49:30.526Z,23.61
2022-09-06T17:51:57.117Z,23.56
2022-09-06T17:54:23.842Z,23.31
2022-09-06T17:56:50.223Z,23.27
2022-09-06T17:59:16.672Z,23.19
2022-09-06T18:01:43.445Z,23.06
2022-09-06T18:04:10.116Z,22.97
2022-09-06T18:06:38.344Z,22.92
2022-09-06T18:09:05.784Z,22.71
2022-09-06T18:11:32.969Z,22.65
2022-09-06T18:14:03.670Z,22.55
2022-09-06T18:16:30.414Z,22.43
2022-09-06T18:18:57.687Z,22.37
2022-09-06T18:21:24.289Z,22.28
2022-09-06T18:23:51.231Z,22.31
2022-09-06T18:26:17.621Z,22.27
2022-09-06T18:28:44.106Z,22.16
2022-09-06T18:31:11.186Z,22.03
2022-09-06T18:33:37.698Z,21.96
2022-09-06T18:36:04.794Z,21.91
2022-09-06T18:38:31.425Z,22.02
2022-09-06T18:40:59.197Z,22.22
2022-09-06T18:43:30.627Z,22.27
2022-09-06T18:46:03.768Z,22.20
2022-09-06T18:48:31.365Z,22.25
2022-09-06T18:50:59.902Z,22.15
2022-09-06T18:53:26.485Z,22.09
2022-09-06T18:55:53.095Z,21.96
2022-09-06T18:58:19.580Z,21.98
2022-09-06T19:00:46.132Z,21.95
2022-09-06T19:03:12.553Z,22.13
2022-09-06T19:05:38.954Z,22.19
2022-09-06T19:08:05.377Z,21.97
2022-09-06T19:10:31.779Z,21.92
2022-09-06T19:12:58.150Z,21.78
2022-09-06T19:15:24.701Z,21.72
2022-09-06T19:17:51.119Z,21.61
2022-09-06T19:20:18.163Z,21.61
2022-09-06T19:22:44.725Z,21.62
2022-09-06T19:25:11.110Z,21.55
2022-09-06T19:27:37.777Z,21.31
2022-09-06T19:30:06.834Z,21.22
2022-09-06T19:32:33.484Z,21.22
2022-09-06T19:35:01.419Z,21.09
2022-09-06T19:37:28.045Z,20.81
2022-09-06T19:39:54.715Z,20.64
2022-09-06T19:42:21.101Z,20.55
2022-09-06T19:44:47.485Z,20.60
2022-09-06T19:47:13.902Z,20.40
2022-09-06T19:49:40.348Z,20.36
2022-09-06T19:52:09.690Z,20.41
2022-09-06T19:54:36.820Z,20.35
2022-09-06T19:57:03.727Z,20.42
2022-09-06T19:59:30.194Z,20.43
2022-09-06T20:01:59.519Z,20.50
2022-09-06T20:04:28.526Z,20.37
2022-09-06T20:06:54.900Z,20.55
2022-09-06T20:09:21.295Z,20.47
2022-09-06T20:11:48.093Z,20.61
2022-09-06T20:14:14.468Z,20.49
2022-09-06T20:16:42.032Z,20.65
2022-09-06T20:19:08.931Z,20.62
2022-09-06T20:21:35.303Z,20.68
2022-09-06T20:24:01.710Z,20.83
2022-09-06T20:26:28.728Z,20.86
2022-09-06T20:28:55.856Z,20.65
2022-09-06T20:31:22.333Z,20.57
2022-09-06T20:33:49.827Z,20.48
2022-09-06T20:36:16.485Z,20.43
2022-09-06T20:38:43.161Z,20.42
2022-09-06T20:41:10.790Z,20.43
2022-09-06T20:43:37.580Z,20.68
2022-09-06T20:46:04.598Z,20.43
2022-09-06T20:48:32.341Z,20.18
2022-09-06T20:51:02.555Z,20.28
2022-09-06T20:53:29.652Z,20.29
2022-09-06T20:55:57.471Z,20.23
2022-09-06T20:58:24.280Z,20.26
2022-09-06T21:00:52.016Z,20.16
2022-09-06T21:03:18.564Z,20.28
2022-09-06T21:05:44.954Z,19.95
2022-09-06T21:08:11.812Z,19.93
2022-09-06T21:10:38.444Z,19.96
2022-09-06T21:13:04.828Z,20.20
2022-09-06T21:15:34.724Z,20.20
2022-09-06T21:18:01.408Z,20.28
2022-09-06T21:20:27.801Z,20.38
2022-09-06T21:22:54.169Z,20.34
2022-09-06T21:25:20.649Z,20.31
2022-09-06T21:27:47.019Z,20.20
2022-09-06T21:30:13.403Z,20.18
2022-09-06T21:32:39.770Z,20.20
2022-09-06T21:35:06.270Z,20.25
2022-09-06T21:37:32.644Z,20.18
2022-09-06T21:39:59.045Z,20.18
2022-09-06T21:42:27.667Z,19.98
2022-09-06T21:44:54.047Z,19.94
2022-09-06T21:47:20.448Z,19.78
2022-09-06T21:49:46.846Z,19.87
2022-09-06T21:52:13.231Z,19.94
2022-09-06T21:54:39.691Z,19.98
2022-09-06T21:57:06.051Z,20.04
2022-09-06T21:59:32.468Z,20.16
2022-09-06T22:01:58.958Z,20.24
2022-09-06T22:04:25.364Z,20.19
2022-09-06T22:06:51.882Z,20.20
2022-09-06T22:09:18.267Z,20.22
2022-09-06T22:11:44.694Z,20.17
2022-09-06T22:14:11.701Z,20.20
2022-09-06T22:16:38.322Z,20.21
2022-09-06T22:19:05.153Z,20.15
2022-09-06T22:21:31.538Z,20.19
2022-09-06T22:23:58.837Z,20.09
2022-09-06T22:26:25.814Z,20.06
2022-09-06T22:28:52.872Z,20.06
2022-09-06T22:31:19.314Z,19.92
2022-09-06T22:33:45.709Z,19.88
2022-09-06T22:36:12.487Z,19.86
2022-09-06T22:38:38.932Z,19.80
2022-09-06T22:41:05.317Z,19.73
2022-09-06T22:43:32.200Z,19.68
2022-09-06T22:46:02.301Z,19.71
2022-09-06T22:48:28.829Z,19.70
2022-09-06T22:50:55.259Z,19.65
2022-09-06T22:53:21.838Z,19.62
2022-09-06T22:55:48.306Z,19.64
2022-09-06T22:58:14.786Z,19.65
2022-09-06T23:00:41.250Z,19.69
2022-09-06T23:03:07.644Z,19.76
2022-09-06T23:05:34.125Z,19.83
2022-09-06T23:08:01.982Z,19.77
2022-09-06T23:10:28.678Z,19.70
2022-09-06T23:12:55.083Z,19.57
2022-09-06T23:15:21.504Z,19.56
2022-09-06T23:17:47.966Z,19.57
2022-09-06T23:20:14.354Z,19.54
2022-09-06T23:22:40.977Z,19.54
2022-09-06T23:25:07.669Z,19.56
2022-09-06T23:27:34.138Z,19.60
2022-09-06T23:30:01.010Z,19.68
2022-09-06T23:32:27.975Z,19.61
2022-09-06T23:34:55.728Z,19.58
2022-09-06T23:37:22.317Z,19.50
2022-09-06T23:39:48.762Z,19.49
2022-09-06T23:42:15.222Z,19.53
2022-09-06T23:44:41.608Z,19.54
2022-09-06T23:47:07.979Z,19.45
2022-09-06T23:49:34.363Z,19.47
2022-09-06T23:52:00.733Z,19.38
2022-09-06T23:54:27.119Z,19.30
2022-09-06T23:56:53.613Z,19.44
2022-09-06T23:59:19.985Z,19.35
